Time;durP1;ratioP1;P1;durP2;ratioP2;P2;SDS_P1;SDS_P2;PMS_P1;PMS_P2;Temp;Humidity;BMP_temperature;BMP_pressure;BME280_temperature;BME280_humidity;BME280_pressure;Samples;Min_cycle;Max_cycle;Signal;HPM_P1;HPM_P2
2023/04/26 00:01:53;;;;;;;5.32;3.00;;;;;;;;;;5101785;28;20039;-79
2023/04/26 00:04:19;;;;;;;3.95;2.50;;;;;;;;;;5102026;28;20091;-78
2023/04/26 00:06:45;;;;;;;4.47;2.70;;;;;;;;;;5102595;28;20043;-77
2023/04/26 00:09:11;;;;;;;3.17;2.45;;;;;;;;;;5103377;28;20335;-78
2023/04/26 00:11:37;;;;;;;3.63;2.67;;;;;;;;;;5102251;28;20031;-78
2023/04/26 00:14:03;;;;;;;3.78;2.80;;;;;;;;;;5103306;28;20032;-78
2023/04/26 00:16:29;;;;;;;3.05;2.65;;;;;;;;;;5104769;28;20038;-79
2023/04/26 00:18:55;;;;;;;4.97;3.53;;;;;;;;;;5102975;28;20028;-78
2023/04/26 00:21:21;;;;;;;3.13;2.40;;;;;;;;;;5100889;28;20047;-77
2023/04/26 00:23:47;;;;;;;6.75;2.88;;;;;;;;;;5102308;28;20032;-78
2023/04/26 00:26:13;;;;;;;5.22;2.63;;;;;;;;;;5100020;28;20020;-78
2023/04/26 00:28:42;;;;;;;5.30;3.20;;;;;;;;;;5101512;28;20067;-76
2023/04/26 00:31:13;;;;;;;4.07;3.03;;;;;;;;;;5103090;28;20051;-78
2023/04/26 00:33:39;;;;;;;5.50;3.83;;;;;;;;;;5104497;28;20077;-76
2023/04/26 00:36:05;;;;;;;4.05;3.50;;;;;;;;;;5100208;28;20492;-77
2023/04/26 00:38:31;;;;;;;5.13;2.92;;;;;;;;;;5102143;28;20059;-78
2023/04/26 00:40:57;;;;;;;5.85;3.55;;;;;;;;;;5103340;28;20016;-78
2023/04/26 00:43:23;;;;;;;5.63;2.80;;;;;;;;;;5103357;28;20040;-78
2023/04/26 00:45:50;;;;;;;4.25;3.35;;;;;;;;;;5104082;28;20024;-78
2023/04/26 00:48:17;;;;;;;3.10;2.58;;;;;;;;;;5104319;28;20016;-79
2023/04/26 00:50:43;;;;;;;4.35;3.08;;;;;;;;;;5103796;28;20081;-78
2023/04/26 00:53:13;;;;;;;5.38;3.22;;;;;;;;;;5101053;28;20034;-76
2023/04/26 00:55:40;;;;;;;5.03;3.55;;;;;;;;;;5102022;28;20120;-77
2023/04/26 00:58:06;;;;;;;7.75;4.13;;;;;;;;;;5103325;28;20027;-78
2023/04/26 01:00:32;;;;;;;4.75;3.90;;;;;;;;;;5097181;28;20020;-78
2023/04/26 01:02:59;;;;;;;7.35;4.95;;;;;;;;;;5095664;28;20040;-79
2023/04/26 01:05:25;;;;;;;7.90;5.00;;;;;;;;;;5095260;28;20398;-78
2023/04/26 01:07:51;;;;;;;8.85;4.28;;;;;;;;;;5093301;28;20032;-78
2023/04/26 01:10:18;;;;;;;8.05;4.35;;;;;;;;;;5090891;28;20078;-78
2023/04/26 01:12:44;;;;;;;10.60;4.35;;;;;;;;;;5091225;28;20477;-78
2023/04/26 01:15:10;;;;;;;7.22;4.85;;;;;;;;;;5092944;28;20027;-77
2023/04/26 01:17:37;;;;;;;10.27;5.55;;;;;;;;;;5094681;28;20032;-78
2023/04/26 01:20:03;;;;;;;8.95;3.92;;;;;;;;;;5095333;28;20051;-78
2023/04/26 01:22:32;;;;;;;7.65;4.97;;;;;;;;;;5094735;28;20044;-78
2023/04/26 01:24:59;;;;;;;9.98;5.03;;;;;;;;;;5094666;28;20099;-78
2023/04/26 01:27:25;;;;;;;6.75;4.47;;;;;;;;;;5093048;28;20476;-78
2023/04/26 01:29:51;;;;;;;7.78;5.88;;;;;;;;;;5091576;28;20108;-78
2023/04/26 01:32:17;;;;;;;12.35;4.93;;;;;;;;;;5091285;28;20591;-78
2023/04/26 01:34:43;;;;;;;6.50;4.28;;;;;;;;;;5090590;28;20534;-78
2023/04/26 01:37:09;;;;;;;12.20;7.25;;;;;;;;;;5090941;28;20028;-77
2023/04/26 01:39:35;;;;;;;17.70;7.00;;;;;;;;;;5089493;28;20035;-78
2023/04/26 01:42:03;;;;;;;14.95;6.78;;;;;;;;;;5090580;28;20511;-79
2023/04/26 01:44:29;;;;;;;14.98;6.90;;;;;;;;;;5088894;28;20028;-78
2023/04/26 01:46:55;;;;;;;14.68;8.07;;;;;;;;;;5089523;28;20024;-78
2023/04/26 01:49:21;;;;;;;24.73;11.20;;;;;;;;;;5091446;28;20383;-78
2023/04/26 01:51:47;;;;;;;23.10;9.73;;;;;;;;;;5092422;28;20020;-78
2023/04/26 01:54:13;;;;;;;19.90;10.38;;;;;;;;;;5093439;28;20383;-78
2023/04/26 01:56:40;;;;;;;36.60;12.25;;;;;;;;;;5092067;28;20027;-77
2023/04/26 01:59:06;;;;;;;25.15;12.68;;;;;;;;;;5095192;28;20084;-77
2023/04/26 02:01:32;;;;;;;25.00;12.45;;;;;;;;;;5093451;28;20024;-78
2023/04/26 02:03:58;;;;;;;28.38;12.38;;;;;;;;;;5095241;28;20024;-78
2023/04/26 02:06:24;;;;;;;24.60;11.25;;;;;;;;;;5095140;28;20455;-78
2023/04/26 02:08:50;;;;;;;24.55;12.40;;;;;;;;;;5094382;28;20083;-78
2023/04/26 02:11:16;;;;;;;18.90;10.15;;;;;;;;;;5094487;28;20456;-78
2023/04/26 02:13:42;;;;;;;20.33;10.88;;;;;;;;;;5092196;28;20036;-78
2023/04/26 02:16:08;;;;;;;25.02;12.63;;;;;;;;;;5092522;28;20461;-78
2023/04/26 02:18:34;;;;;;;24.33;10.93;;;;;;;;;;5093212;28;20153;-78
2023/04/26 02:21:00;;;;;;;21.35;12.85;;;;;;;;;;5090202;28;20089;-78
2023/04/26 02:23:26;;;;;;;20.60;11.00;;;;;;;;;;5090276;28;20134;-78
2023/04/26 02:25:52;;;;;;;20.67;11.32;;;;;;;;;;5092539;28;20069;-78
2023/04/26 02:28:18;;;;;;;25.33;10.23;;;;;;;;;;5092257;28;20035;-78
2023/04/26 02:30:44;;;;;;;30.85;12.13;;;;;;;;;;5090581;28;20380;-78
2023/04/26 02:33:10;;;;;;;21.42;9.82;;;;;;;;;;5091304;28;20020;-78
2023/04/26 02:35:36;;;;;;;34.83;14.95;;;;;;;;;;5094118;28;20035;-78
2023/04/26 02:38:03;;;;;;;28.67;12.38;;;;;;;;;;5091588;28;20546;-78
2023/04/26 02:40:29;;;;;;;25.38;11.77;;;;;;;;;;5090829;28;20020;-77
2023/04/26 02:42:55;;;;;;;58.47;14.75;;;;;;;;;;5089337;28;20040;-76
2023/04/26 02:45:21;;;;;;;27.73;11.48;;;;;;;;;;5090533;28;20480;-78
2023/04/26 02:47:47;;;;;;;48.72;13.52;;;;;;;;;;5090399;28;20054;-78
2023/04/26 02:50:13;;;;;;;24.58;12.43;;;;;;;;;;5088851;28;20476;-78
2023/04/26 02:52:40;;;;;;;26.67;11.93;;;;;;;;;;5089710;28;20028;-78
2023/04/26 02:55:06;;;;;;;22.00;11.18;;;;;;;;;;5091487;28;20025;-78
2023/04/26 02:57:32;;;;;;;21.70;10.48;;;;;;;;;;5090532;28;20040;-78
2023/04/26 02:59:58;;;;;;;31.55;12.80;;;;;;;;;;5089703;28;20033;-77
2023/04/26 03:02:24;;;;;;;28.75;12.85;;;;;;;;;;5094708;28;20035;-78
2023/04/26 03:04:51;;;;;;;30.77;11.63;;;;;;;;;;5095622;28;20478;-78
2023/04/26 03:07:17;;;;;;;26.85;12.20;;;;;;;;;;5094609;28;20538;-78
2023/04/26 03:09:43;;;;;;;28.05;11.38;;;;;;;;;;5095443;28;20034;-78
2023/04/26 03:12:09;;;;;;;45.00;12.77;;;;;;;;;;5095236;28;20020;-78
2023/04/26 03:14:35;;;;;;;31.17;13.32;;;;;;;;;;5093722;28;20495;-78
2023/04/26 03:17:01;;;;;;;31.85;14.50;;;;;;;;;;5094516;28;20028;-78
2023/04/26 03:19:28;;;;;;;47.35;12.15;;;;;;;;;;5094476;28;20054;-79
2023/04/26 03:21:54;;;;;;;63.30;12.40;;;;;;;;;;5093050;28;20040;-78
2023/04/26 03:24:20;;;;;;;47.72;13.20;;;;;;;;;;5094262;28;20068;-77
2023/04/26 03:26:46;;;;;;;29.67;12.48;;;;;;;;;;5094271;28;20062;-78
2023/04/26 03:29:13;;;;;;;28.40;11.77;;;;;;;;;;5092509;28;20031;-79
2023/04/26 03:31:39;;;;;;;70.38;21.50;;;;;;;;;;5094083;28;20042;-78
2023/04/26 03:34:06;;;;;;;68.30;18.52;;;;;;;;;;5093865;28;20032;-78
2023/04/26 03:36:33;;;;;;;79.22;21.65;;;;;;;;;;5093811;28;20464;-78
2023/04/26 03:38:59;;;;;;;77.78;19.08;;;;;;;;;;5094073;28;20092;-77
2023/04/26 03:41:25;;;;;;;25.05;12.23;;;;;;;;;;5094228;28;20032;-77
2023/04/26 03:43:51;;;;;;;33.55;11.93;;;;;;;;;;5094504;28;20067;-77
2023/04/26 03:46:17;;;;;;;55.15;13.35;;;;;;;;;;5095389;28;20031;-76
2023/04/26 03:48:43;;;;;;;37.25;11.43;;;;;;;;;;5092898;28;20024;-76
2023/04/26 03:51:12;;;;;;;30.20;12.10;;;;;;;;;;5094136;28;20016;-76
2023/04/26 03:53:41;;;;;;;26.77;13.73;;;;;;;;;;5097090;28;20039;-76
2023/04/26 03:56:07;;;;;;;23.65;11.65;;;;;;;;;;5098528;28;20476;-76
2023/04/26 03:58:33;;;;;;;47.35;13.18;;;;;;;;;;5095211;28;20119;-76
2023/04/26 04:00:59;;;;;;;28.83;11.20;;;;;;;;;;5096599;28;20043;-78
2023/04/26 04:03:25;;;;;;;23.58;10.77;;;;;;;;;;5097376;28;20028;-76
2023/04/26 04:05:51;;;;;;;44.08;14.93;;;;;;;;;;5094746;28;20494;-76
2023/04/26 04:08:17;;;;;;;40.70;13.80;;;;;;;;;;5095107;28;20040;-76
2023/04/26 04:10:44;;;;;;;31.45;13.23;;;;;;;;;;5095405;28;20043;-76
2023/04/26 04:13:10;;;;;;;34.78;12.68;;;;;;;;;;5096405;28;20032;-77
2023/04/26 04:15:36;;;;;;;33.22;14.02;;;;;;;;;;5096767;28;20024;-75
2023/04/26 04:18:03;;;;;;;84.47;17.00;;;;;;;;;;5094010;28;20107;-76
2023/04/26 04:20:29;;;;;;;84.85;20.33;;;;;;;;;;5093656;28;20047;-75
2023/04/26 04:22:57;;;;;;;36.72;14.38;;;;;;;;;;5091924;28;20373;-75
2023/04/26 04:25:24;;;;;;;33.38;14.00;;;;;;;;;;5093015;28;20028;-76
2023/04/26 04:27:50;;;;;;;24.67;11.43;;;;;;;;;;5095616;28;20043;-76
2023/04/26 04:30:16;;;;;;;25.92;10.90;;;;;;;;;;5093401;28;20364;-78
2023/04/26 04:32:45;;;;;;;20.83;10.50;;;;;;;;;;5092974;28;20085;-78
2023/04/26 04:35:12;;;;;;;20.85;8.70;;;;;;;;;;5092112;28;20020;-78
2023/04/26 04:37:38;;;;;;;26.40;11.75;;;;;;;;;;5092983;28;20047;-78
2023/04/26 04:40:04;;;;;;;23.15;11.20;;;;;;;;;;5093010;28;20024;-78
2023/04/26 04:42:31;;;;;;;24.67;11.73;;;;;;;;;;5093166;28;20034;-78
2023/04/26 04:44:58;;;;;;;21.75;10.32;;;;;;;;;;5092941;28;20031;-78
2023/04/26 04:47:24;;;;;;;19.80;9.00;;;;;;;;;;5092504;28;20028;-78
2023/04/26 04:49:50;;;;;;;28.10;11.50;;;;;;;;;;5093026;28;20031;-79
2023/04/26 04:52:18;;;;;;;25.15;10.40;;;;;;;;;;5092401;28;20468;-78
2023/04/26 04:54:44;;;;;;;21.05;11.45;;;;;;;;;;5093113;28;20020;-78
2023/04/26 04:57:10;;;;;;;17.73;9.50;;;;;;;;;;5093642;28;20142;-78
2023/04/26 04:59:36;;;;;;;18.30;9.13;;;;;;;;;;5092825;28;20142;-77
2023/04/26 05:02:02;;;;;;;21.70;11.10;;;;;;;;;;5092618;28;20500;-79
2023/04/26 05:04:28;;;;;;;23.55;8.68;;;;;;;;;;5093036;28;20025;-78
2023/04/26 05:06:54;;;;;;;16.20;8.75;;;;;;;;;;5091999;28;20499;-79
2023/04/26 05:09:20;;;;;;;21.23;10.02;;;;;;;;;;5090421;28;20111;-78
2023/04/26 05:11:46;;;;;;;28.88;10.30;;;;;;;;;;5091502;28;20374;-77
2023/04/26 05:14:13;;;;;;;36.95;10.23;;;;;;;;;;5090281;28;20126;-78
2023/04/26 05:16:40;;;;;;;24.15;9.35;;;;;;;;;;5090556;28;20376;-78
2023/04/26 05:19:06;;;;;;;29.33;10.65;;;;;;;;;;5091831;28;20039;-77
2023/04/26 05:21:32;;;;;;;31.00;11.52;;;;;;;;;;5091487;28;20140;-79
2023/04/26 05:23:58;;;;;;;21.48;10.95;;;;;;;;;;5090738;28;20519;-78
2023/04/26 05:26:24;;;;;;;25.88;10.50;;;;;;;;;;5098015;28;20027;-78
2023/04/26 05:28:50;;;;;;;32.97;11.77;;;;;;;;;;5096457;28;20082;-78
2023/04/26 05:31:16;;;;;;;23.50;11.30;;;;;;;;;;5093994;28;20016;-78
2023/04/26 05:33:42;;;;;;;23.05;9.63;;;;;;;;;;5093711;28;20046;-78
2023/04/26 05:36:08;;;;;;;22.73;10.18;;;;;;;;;;5091758;28;20531;-78
2023/04/26 05:38:36;;;;;;;33.22;12.68;;;;;;;;;;5089942;28;20028;-77
2023/04/26 05:41:02;;;;;;;22.85;11.02;;;;;;;;;;5088963;28;20024;-78
2023/04/26 05:43:29;;;;;;;20.38;8.85;;;;;;;;;;5089172;28;20397;-79
2023/04/26 05:45:56;;;;;;;27.88;11.48;;;;;;;;;;5088323;28;20380;-79
2023/04/26 05:48:23;;;;;;;25.67;11.90;;;;;;;;;;5086886;28;20092;-80
2023/04/26 05:50:49;;;;;;;16.67;8.75;;;;;;;;;;5087973;28;20034;-79
2023/04/26 05:53:15;;;;;;;17.88;9.68;;;;;;;;;;5088461;28;20028;-79
2023/04/26 05:55:42;;;;;;;16.85;8.40;;;;;;;;;;5087628;28;20024;-78
2023/04/26 05:58:08;;;;;;;39.17;12.13;;;;;;;;;;5087457;28;20103;-78
2023/04/26 06:00:35;;;;;;;36.80;11.70;;;;;;;;;;5088008;28;20016;-77
2023/04/26 06:03:01;;;;;;;34.22;11.95;;;;;;;;;;5087863;28;20068;-79
2023/04/26 06:05:27;;;;;;;24.10;11.02;;;;;;;;;;5087174;28;20020;-78
2023/04/26 06:07:53;;;;;;;22.80;11.50;;;;;;;;;;5088284;28;20492;-78
2023/04/26 06:10:19;;;;;;;28.92;11.75;;;;;;;;;;5087967;28;20028;-79
2023/04/26 06:12:46;;;;;;;25.45;10.77;;;;;;;;;;5090028;28;20033;-78
2023/04/26 06:15:13;;;;;;;28.75;10.55;;;;;;;;;;5090985;28;20035;-80
2023/04/26 06:17:39;;;;;;;23.85;9.05;;;;;;;;;;5091676;28;20024;-80
2023/04/26 06:20:06;;;;;;;26.15;12.15;;;;;;;;;;5091601;28;20024;-79
2023/04/26 06:22:32;;;;;;;30.20;14.27;;;;;;;;;;5089734;28;20036;-79
2023/04/26 06:24:58;;;;;;;41.13;17.63;;;;;;;;;;5091451;28;20050;-79
2023/04/26 06:27:24;;;;;;;30.83;11.82;;;;;;;;;;5091585;28;20028;-81
2023/04/26 06:29:51;;;;;;;26.58;12.23;;;;;;;;;;5089909;28;20030;-78
2023/04/26 06:32:17;;;;;;;30.25;11.57;;;;;;;;;;5089797;28;20023;-80
2023/04/26 06:34:44;;;;;;;27.88;11.90;;;;;;;;;;5091325;28;20043;-79
2023/04/26 06:37:10;;;;;;;23.58;11.80;;;;;;;;;;5092038;28;20377;-77
2023/04/26 06:39:39;;;;;;;26.65;11.50;;;;;;;;;;5094264;28;20055;-75
2023/04/26 06:42:05;;;;;;;23.63;10.88;;;;;;;;;;5093829;28;20051;-77
2023/04/26 06:44:32;;;;;;;36.90;12.82;;;;;;;;;;5092011;28;20055;-81
2023/04/26 06:46:58;;;;;;;29.08;11.88;;;;;;;;;;5091379;28;20300;-82
2023/04/26 06:49:24;;;;;;;29.92;11.45;;;;;;;;;;5089746;28;20070;-81
2023/04/26 06:51:51;;;;;;;20.38;10.43;;;;;;;;;;5089967;28;20115;-80
2023/04/26 06:54:17;;;;;;;26.05;9.95;;;;;;;;;;5089434;28;20027;-79
2023/04/26 06:56:43;;;;;;;22.95;10.85;;;;;;;;;;5089790;28;20055;-80
2023/04/26 06:59:09;;;;;;;22.50;9.10;;;;;;;;;;5090770;28;20028;-82
2023/04/26 07:01:35;;;;;;;22.88;9.98;;;;;;;;;;5089542;28;20055;-81
2023/04/26 07:04:03;;;;;;;20.98;11.32;;;;;;;;;;5090656;28;20039;-79
2023/04/26 07:06:30;;;;;;;20.60;8.55;;;;;;;;;;5088807;28;20396;-79
2023/04/26 07:08:57;;;;;;;18.40;9.48;;;;;;;;;;5089138;28;20589;-80
2023/04/26 07:11:23;;;;;;;22.23;9.07;;;;;;;;;;5090608;28;20027;-81
2023/04/26 07:13:49;;;;;;;14.07;8.10;;;;;;;;;;5090645;28;20411;-80
2023/04/26 07:16:15;;;;;;;13.50;8.65;;;;;;;;;;5091016;28;20028;-80
2023/04/26 07:18:41;;;;;;;13.88;7.35;;;;;;;;;;5092591;28;20052;-80
2023/04/26 07:21:07;;;;;;;18.08;7.93;;;;;;;;;;5089851;28;20083;-81
2023/04/26 07:23:33;;;;;;;11.82;7.18;;;;;;;;;;5090377;28;20453;-82
2023/04/26 07:26:06;;;;;;;12.30;7.38;;;;;;;;;;5092238;28;20020;-82
2023/04/26 07:28:32;;;;;;;13.40;7.43;;;;;;;;;;5096043;28;20020;-82
2023/04/26 07:30:58;;;;;;;15.20;8.13;;;;;;;;;;5097122;28;20063;-81
2023/04/26 07:33:25;;;;;;;20.08;8.50;;;;;;;;;;5098118;28;20096;-81
2023/04/26 07:35:55;;;;;;;19.60;7.78;;;;;;;;;;5102029;28;20024;-82
2023/04/26 07:38:21;;;;;;;12.35;6.55;;;;;;;;;;5092051;28;20023;-81
2023/04/26 07:40:47;;;;;;;9.65;5.47;;;;;;;;;;5099024;28;20063;-83
2023/04/26 07:43:14;;;;;;;9.15;5.78;;;;;;;;;;5102488;28;20051;-79
2023/04/26 07:45:40;;;;;;;10.50;6.43;;;;;;;;;;5113083;28;20015;-82
2023/04/26 07:48:06;;;;;;;11.60;7.20;;;;;;;;;;5103417;28;20030;-82
2023/04/26 07:50:32;;;;;;;9.95;6.25;;;;;;;;;;5107751;28;20265;-83
2023/04/26 07:52:58;;;;;;;11.35;5.72;;;;;;;;;;5113824;28;20016;-84
2023/04/26 07:55:25;;;;;;;11.02;6.10;;;;;;;;;;5109160;28;20024;-83
2023/04/26 07:57:51;;;;;;;9.02;5.63;;;;;;;;;;5108452;28;20114;-83
2023/04/26 08:00:17;;;;;;;7.00;5.15;;;;;;;;;;5104299;28;20020;-83
2023/04/26 08:02:47;;;;;;;12.02;5.57;;;;;;;;;;5105580;28;20089;-80
2023/04/26 08:05:13;;;;;;;10.68;5.85;;;;;;;;;;5102669;28;20034;-82
2023/04/26 08:07:39;;;;;;;10.65;5.93;;;;;;;;;;5102643;28;20054;-82
2023/04/26 08:10:05;;;;;;;9.85;6.53;;;;;;;;;;5102611;28;20058;-82
2023/04/26 08:12:32;;;;;;;7.63;5.28;;;;;;;;;;5099351;28;20081;-80
2023/04/26 08:15:00;;;;;;;14.93;5.95;;;;;;;;;;5099822;28;20020;-80
2023/04/26 08:17:26;;;;;;;11.95;5.85;;;;;;;;;;5107254;28;20565;-78
2023/04/26 08:19:52;;;;;;;9.32;5.18;;;;;;;;;;5096801;28;20597;-81
2023/04/26 08:22:18;;;;;;;6.70;4.78;;;;;;;;;;5089227;28;20047;-82
2023/04/26 08:24:52;;;;;;;8.00;4.88;;;;;;;;;;5094071;28;20039;-80
2023/04/26 08:27:18;;;;;;;5.70;5.05;;;;;;;;;;5092123;28;20020;-81
2023/04/26 08:29:44;;;;;;;7.15;4.75;;;;;;;;;;5099265;28;20028;-79
2023/04/26 08:32:10;;;;;;;5.97;4.10;;;;;;;;;;5098172;28;20027;-82
2023/04/26 08:34:36;;;;;;;6.22;4.45;;;;;;;;;;5091867;28;20032;-82
2023/04/26 08:37:02;;;;;;;8.50;4.90;;;;;;;;;;5097891;28;20020;-81
2023/04/26 08:39:28;;;;;;;6.20;4.28;;;;;;;;;;5100522;28;20071;-79
2023/04/26 08:41:54;;;;;;;10.02;4.70;;;;;;;;;;5102653;28;20440;-81
2023/04/26 08:44:23;;;;;;;8.77;4.85;;;;;;;;;;5097377;28;20060;-79
2023/04/26 08:46:48;;;;;;;8.02;4.93;;;;;;;;;;5095476;28;20021;-81
2023/04/26 08:49:42;;;;;;;9.77;6.40;;;;;;;;;;5095622;28;20032;-81
2023/04/26 08:52:09;;;;;;;9.82;6.65;;;;;;;;;;5096332;28;20044;-81
2023/04/26 08:54:36;;;;;;;8.35;4.85;;;;;;;;;;5095346;28;20069;-81
2023/04/26 08:57:02;;;;;;;10.15;6.18;;;;;;;;;;5093041;28;20020;-80
2023/04/26 08:59:30;;;;;;;11.00;6.47;;;;;;;;;;5089938;28;20047;-81
2023/04/26 09:01:57;;;;;;;8.32;5.50;;;;;;;;;;5077165;28;20028;-80
2023/04/26 09:04:23;;;;;;;10.43;6.82;;;;;;;;;;5091905;28;20043;-81
2023/04/26 09:06:49;;;;;;;9.45;5.60;;;;;;;;;;5093900;28;20590;-80
2023/04/26 09:09:18;;;;;;;8.15;4.93;;;;;;;;;;5079313;28;20347;-80
2023/04/26 09:11:52;;;;;;;8.05;4.55;;;;;;;;;;5094898;28;20052;-79
2023/04/26 09:14:18;;;;;;;7.47;4.70;;;;;;;;;;5093757;28;20029;-82
2023/04/26 09:16:44;;;;;;;7.15;4.35;;;;;;;;;;5093621;28;20058;-78
2023/04/26 09:19:10;;;;;;;5.78;3.63;;;;;;;;;;5078897;28;20032;-81
2023/04/26 09:21:44;;;;;;;9.38;4.70;;;;;;;;;;5079289;28;20409;-80
2023/04/26 09:24:10;;;;;;;10.93;5.03;;;;;;;;;;5077394;28;20032;-78
2023/04/26 09:26:36;;;;;;;9.10;4.68;;;;;;;;;;5079174;28;20073;-78
2023/04/26 09:29:12;;;;;;;9.88;5.45;;;;;;;;;;5095238;28;20501;-79
2023/04/26 09:31:40;;;;;;;6.50;4.78;;;;;;;;;;5078079;28;20040;-77
2023/04/26 09:34:07;;;;;;;6.75;4.65;;;;;;;;;;5072184;28;20237;-79
2023/04/26 09:36:45;;;;;;;7.30;4.93;;;;;;;;;;5087949;28;20016;-78
2023/04/26 09:39:12;;;;;;;7.10;3.90;;;;;;;;;;5091814;28;20095;-79
2023/04/26 09:41:44;;;;;;;4.88;3.70;;;;;;;;;;5080211;28;20020;-79
2023/04/26 09:44:23;;;;;;;7.78;4.35;;;;;;;;;;5078336;28;20117;-78
2023/04/26 09:46:58;;;;;;;7.55;4.03;;;;;;;;;;5094542;28;20104;-78
2023/04/26 09:49:43;;;;;;;4.50;3.17;;;;;;;;;;5078191;28;20070;-79
2023/04/26 09:52:10;;;;;;;5.22;3.97;;;;;;;;;;5074519;28;20073;-79
2023/04/26 09:54:43;;;;;;;6.78;3.90;;;;;;;;;;5086078;28;20020;-78
2023/04/26 09:57:10;;;;;;;9.73;3.97;;;;;;;;;;5103221;28;20095;-79
2023/04/26 09:59:40;;;;;;;5.65;4.40;;;;;;;;;;5098175;28;20017;-79
2023/04/26 10:02:25;;;;;;;7.03;4.22;;;;;;;;;;5082073;28;20028;-79
2023/04/26 10:04:53;;;;;;;5.38;3.97;;;;;;;;;;5100205;28;20024;-80
2023/04/26 10:07:20;;;;;;;6.25;3.78;;;;;;;;;;5089129;28;20020;-79
2023/04/26 10:09:47;;;;;;;6.07;4.07;;;;;;;;;;5081898;28;20458;-78
2023/04/26 10:12:17;;;;;;;7.70;3.95;;;;;;;;;;5103121;28;20043;-78
2023/04/26 10:14:43;;;;;;;6.65;4.68;;;;;;;;;;5101292;28;20076;-80
2023/04/26 10:17:10;;;;;;;5.22;3.50;;;;;;;;;;5115007;28;20035;-78
2023/04/26 10:19:37;;;;;;;5.93;3.97;;;;;;;;;;5101347;28;20020;-79
2023/04/26 10:22:35;;;;;;;5.97;3.85;;;;;;;;;;5093938;28;20048;-78
2023/04/26 10:25:01;;;;;;;6.07;4.43;;;;;;;;;;5068734;28;20036;-78
2023/04/26 10:27:59;;;;;;;19.77;4.13;;;;;;;;;;5081053;28;20016;-79
2023/04/26 10:30:25;;;;;;;5.53;4.20;;;;;;;;;;5070956;28;20312;-79
2023/04/26 10:32:51;;;;;;;5.93;3.58;;;;;;;;;;5095983;28;20064;-79
2023/04/26 10:35:18;;;;;;;3.88;3.05;;;;;;;;;;5102068;28;20312;-78
2023/04/26 10:37:59;;;;;;;5.82;3.13;;;;;;;;;;5102467;28;20024;-78
2023/04/26 10:40:26;;;;;;;5.53;3.50;;;;;;;;;;5117232;28;20223;-78
2023/04/26 10:43:15;;;;;;;5.65;4.20;;;;;;;;;;5100598;28;20043;-79
2023/04/26 10:45:41;;;;;;;;;;;;;;;;;;5119338;28;20316;-79
2023/04/26 10:48:19;;;;;;;4.85;3.50;;;;;;;;;;5100241;28;19938;-78
2023/04/26 10:51:01;;;;;;;4.60;3.58;;;;;;;;;;5099927;28;20036;-77
2023/04/26 10:53:27;;;;;;;5.10;3.30;;;;;;;;;;5086214;28;20092;-79
2023/04/26 10:55:55;;;;;;;3.75;3.22;;;;;;;;;;5085628;28;20028;-79
2023/04/26 10:58:32;;;;;;;6.05;4.28;;;;;;;;;;5093809;28;20320;-76
2023/04/26 11:01:19;;;;;;;3.65;3.33;;;;;;;;;;5105731;28;20020;-76
2023/04/26 11:03:58;;;;;;;4.15;3.58;;;;;;;;;;5085354;28;20075;-78
2023/04/26 11:06:25;;;;;;;4.15;3.20;;;;;;;;;;5100613;28;20031;-77
2023/04/26 11:08:58;;;;;;;5.43;2.92;;;;;;;;;;5101696;28;20027;-76
2023/04/26 11:11:28;;;;;;;7.25;4.18;;;;;;;;;;5108875;28;20046;-79
2023/04/26 11:13:55;;;;;;;6.60;3.53;;;;;;;;;;5106345;28;20285;-78
2023/04/26 11:16:25;;;;;;;6.50;3.83;;;;;;;;;;5105725;28;20075;-78
2023/04/26 11:18:53;;;;;;;6.22;3.60;;;;;;;;;;5104046;28;20039;-79
2023/04/26 11:21:21;;;;;;;6.40;3.60;;;;;;;;;;5102385;28;20380;-78
2023/04/26 11:23:53;;;;;;;6.18;4.20;;;;;;;;;;5086391;28;20032;-80
2023/04/26 11:26:19;;;;;;;4.00;3.50;;;;;;;;;;5089118;28;20083;-78
2023/04/26 11:28:45;;;;;;;8.48;4.03;;;;;;;;;;5085979;28;20224;-79
2023/04/26 11:31:13;;;;;;;8.48;4.32;;;;;;;;;;5087534;28;20020;-79
2023/04/26 11:33:40;;;;;;;4.32;3.85;;;;;;;;;;5088619;28;20088;-79
2023/04/26 11:36:07;;;;;;;5.93;4.00;;;;;;;;;;5105000;28;20244;-79
2023/04/26 11:38:33;;;;;;;4.88;3.97;;;;;;;;;;5088262;28;20021;-79
2023/04/26 11:41:00;;;;;;;5.07;3.75;;;;;;;;;;5089069;28;20028;-79
2023/04/26 11:43:36;;;;;;;4.43;3.47;;;;;;;;;;5104868;28;20301;-79
2023/04/26 11:46:02;;;;;;;5.95;3.47;;;;;;;;;;5104984;28;20331;-79
2023/04/26 11:48:29;;;;;;;8.25;3.63;;;;;;;;;;5102623;28;20374;-79
2023/04/26 11:50:59;;;;;;;4.55;3.35;;;;;;;;;;5085591;28;20376;-79
2023/04/26 11:53:25;;;;;;;4.20;3.25;;;;;;;;;;5086580;28;20088;-78
2023/04/26 11:55:51;;;;;;;4.65;3.85;;;;;;;;;;5086539;28;20216;-79
2023/04/26 11:58:17;;;;;;;7.35;4.03;;;;;;;;;;5086786;28;20040;-78
2023/04/26 12:00:56;;;;;;;5.65;3.83;;;;;;;;;;5087142;28;20028;-79
2023/04/26 12:03:23;;;;;;;7.53;3.20;;;;;;;;;;5086613;28;20031;-79
2023/04/26 12:05:55;;;;;;;5.40;3.22;;;;;;;;;;5085046;28;20027;-79
2023/04/26 12:08:25;;;;;;;5.60;3.17;;;;;;;;;;5085806;28;20083;-80
2023/04/26 12:10:51;;;;;;;4.40;2.85;;;;;;;;;;5105878;28;20023;-79
2023/04/26 12:13:18;;;;;;;4.90;3.10;;;;;;;;;;5100292;28;20027;-79
2023/04/26 12:15:46;;;;;;;7.70;4.15;;;;;;;;;;5102234;28;20020;-80
2023/04/26 12:18:12;;;;;;;5.80;3.38;;;;;;;;;;5104121;28;20051;-79
2023/04/26 12:20:39;;;;;;;5.82;3.45;;;;;;;;;;5105795;28;20039;-80
2023/04/26 12:23:06;;;;;;;5.38;3.60;;;;;;;;;;5102923;28;20182;-80
2023/04/26 12:25:33;;;;;;;6.60;3.85;;;;;;;;;;5104757;28;20048;-79
2023/04/26 12:27:59;;;;;;;5.32;4.00;;;;;;;;;;5104393;28;20028;-80
2023/04/26 12:30:26;;;;;;;4.32;2.65;;;;;;;;;;5101955;28;20406;-80
2023/04/26 12:32:52;;;;;;;6.30;3.72;;;;;;;;;;5101246;28;20024;-80
2023/04/26 12:35:18;;;;;;;4.85;1.98;;;;;;;;;;5100660;28;20032;-78
2023/04/26 12:37:46;;;;;;;4.13;1.55;;;;;;;;;;5104653;28;20035;-79
2023/04/26 12:40:12;;;;;;;3.67;1.30;;;;;;;;;;5105076;28;20032;-80
2023/04/26 12:42:39;;;;;;;5.55;1.70;;;;;;;;;;5104641;28;20277;-79
2023/04/26 12:45:05;;;;;;;8.07;2.90;;;;;;;;;;5104552;28;20094;-78
2023/04/26 12:47:31;;;;;;;2.30;2.10;;;;;;;;;;5105341;28;20101;-79
2023/04/26 12:49:59;;;;;;;2.97;2.30;;;;;;;;;;5104360;28;20023;-79
2023/04/26 12:52:26;;;;;;;4.18;2.05;;;;;;;;;;5106380;28;20020;-79
2023/04/26 12:54:55;;;;;;;4.00;2.38;;;;;;;;;;5101757;28;20101;-79
2023/04/26 12:57:21;;;;;;;4.47;2.40;;;;;;;;;;5106989;28;20326;-79
2023/04/26 12:59:47;;;;;;;3.88;2.75;;;;;;;;;;5103388;28;20050;-79
2023/04/26 13:02:13;;;;;;;2.72;2.50;;;;;;;;;;5106416;28;20032;-76
2023/04/26 13:04:39;;;;;;;4.18;3.10;;;;;;;;;;5105084;28;20358;-78
2023/04/26 13:07:05;;;;;;;2.90;2.60;;;;;;;;;;5105462;28;20046;-76
2023/04/26 13:09:31;;;;;;;3.65;2.83;;;;;;;;;;5106141;28;20027;-77
2023/04/26 13:11:57;;;;;;;3.83;2.80;;;;;;;;;;5107217;28;20488;-80
2023/04/26 13:14:23;;;;;;;3.42;2.08;;;;;;;;;;5102048;28;20144;-76
2023/04/26 13:16:51;;;;;;;4.65;2.78;;;;;;;;;;5101490;28;20395;-76
2023/04/26 13:19:17;;;;;;;4.80;2.80;;;;;;;;;;5097375;28;20012;-78
2023/04/26 13:21:43;;;;;;;3.47;2.28;;;;;;;;;;5101294;28;20134;-77
2023/04/26 13:24:09;;;;;;;4.15;2.22;;;;;;;;;;5099389;28;20044;-79
2023/04/26 13:26:35;;;;;;;3.38;2.10;;;;;;;;;;5101289;28;20347;-78
2023/04/26 13:29:03;;;;;;;2.55;1.77;;;;;;;;;;5100586;28;20065;-78
2023/04/26 13:31:29;;;;;;;2.53;2.25;;;;;;;;;;5101863;28;20024;-78
2023/04/26 13:33:55;;;;;;;3.13;2.53;;;;;;;;;;5103822;28;20028;-77
2023/04/26 13:36:21;;;;;;;4.72;2.47;;;;;;;;;;5103678;28;20012;-78
2023/04/26 13:38:47;;;;;;;4.20;2.08;;;;;;;;;;5102767;28;20070;-77
2023/04/26 13:41:14;;;;;;;5.55;3.47;;;;;;;;;;5103826;28;20016;-79
2023/04/26 13:43:40;;;;;;;5.75;3.00;;;;;;;;;;5103287;28;20264;-78
2023/04/26 13:46:06;;;;;;;4.50;2.50;;;;;;;;;;5103306;28;20031;-75
2023/04/26 13:48:32;;;;;;;4.25;2.60;;;;;;;;;;5105501;28;20379;-79
2023/04/26 13:50:58;;;;;;;3.47;3.17;;;;;;;;;;5105011;28;20020;-78
2023/04/26 13:53:25;;;;;;;3.67;2.60;;;;;;;;;;5099296;28;20027;-78
2023/04/26 13:55:51;;;;;;;5.82;3.20;;;;;;;;;;5101699;28;20559;-78
2023/04/26 13:58:17;;;;;;;4.53;2.70;;;;;;;;;;5103183;28;20059;-76
2023/04/26 14:00:43;;;;;;;4.90;3.03;;;;;;;;;;5104819;28;20079;-76
2023/04/26 14:03:09;;;;;;;3.92;2.63;;;;;;;;;;5104834;28;20032;-76
2023/04/26 14:05:35;;;;;;;7.72;2.88;;;;;;;;;;5103619;28;20369;-79
2023/04/26 14:08:01;;;;;;;8.18;3.38;;;;;;;;;;5100590;28;20063;-77
2023/04/26 14:10:27;;;;;;;4.53;3.33;;;;;;;;;;5103814;28;20201;-76
2023/04/26 14:12:55;;;;;;;6.60;2.90;;;;;;;;;;5103424;28;20027;-78
2023/04/26 14:15:21;;;;;;;3.95;3.08;;;;;;;;;;5101940;28;20023;-78
2023/04/26 14:17:47;;;;;;;5.80;3.13;;;;;;;;;;5102203;28;20012;-77
2023/04/26 14:20:13;;;;;;;4.32;3.03;;;;;;;;;;5101589;28;20048;-78
2023/04/26 14:22:39;;;;;;;7.10;3.80;;;;;;;;;;5100820;28;20028;-78
2023/04/26 14:25:07;;;;;;;3.80;2.72;;;;;;;;;;5091481;28;20048;-78
2023/04/26 14:27:34;;;;;;;4.20;2.97;;;;;;;;;;5099875;28;20023;-81
2023/04/26 14:30:00;;;;;;;3.42;2.10;;;;;;;;;;5104183;28;20026;-79
2023/04/26 14:32:26;;;;;;;3.63;2.00;;;;;;;;;;5098868;28;20099;-77
2023/04/26 14:34:52;;;;;;;2.53;2.22;;;;;;;;;;5083460;28;20073;-77